Time;durP1;ratioP1;P1;durP2;ratioP2;P2;SDS_P1;SDS_P2;PMS_P1;PMS_P2;Temp;Humidity;BMP_temperature;BMP_pressure;BME280_temperature;BME280_humidity;BME280_pressure;Samples;Min_cycle;Max_cycle;Signal;HPM_P1;HPM_P2
2021/10/13 00:00:23;;;;;;;0.95;0.47;;;7.10;90.40;;;;;;5001713;28;20029;-66
2021/10/13 00:02:49;;;;;;;1.40;1.00;;;7.10;90.40;;;;;;5001960;28;20052;-66
2021/10/13 00:05:15;;;;;;;2.45;0.82;;;7.10;90.50;;;;;;5001674;28;20037;-66
2021/10/13 00:07:40;;;;;;;1.85;0.85;;;7.10;90.40;;;;;;4983051;28;20030;-66
2021/10/13 00:10:07;;;;;;;2.42;0.88;;;7.00;90.50;;;;;;5001941;28;20065;-66
2021/10/13 00:12:34;;;;;;;1.00;0.82;;;7.00;90.60;;;;;;5001454;28;20559;-66
2021/10/13 00:15:03;;;;;;;1.15;0.68;;;7.00;90.80;;;;;;5000057;28;20457;-66
2021/10/13 00:17:28;;;;;;;3.15;0.60;;;7.00;91.00;;;;;;4983396;28;20830;-66
2021/10/13 00:19:54;;;;;;;1.48;1.13;;;6.90;90.80;;;;;;5001370;28;20040;-66
2021/10/13 00:22:20;;;;;;;2.53;0.95;;;6.90;90.80;;;;;;5001192;28;20040;-66
2021/10/13 00:24:46;;;;;;;0.70;0.60;;;6.90;90.80;;;;;;5001429;28;20034;-66
2021/10/13 00:27:11;;;;;;;1.23;0.70;;;6.90;90.90;;;;;;5000212;28;20037;-67
2021/10/13 00:29:38;;;;;;;1.40;0.68;;;6.90;90.80;;;;;;4989574;28;20073;-66
2021/10/13 00:32:04;;;;;;;0.45;0.43;;;6.90;90.80;;;;;;4991063;28;20096;-66
2021/10/13 00:34:32;;;;;;;1.13;0.82;;;6.90;90.80;;;;;;5000705;28;20034;-66
2021/10/13 00:36:58;;;;;;;1.08;0.70;;;6.90;90.90;;;;;;4981870;28;20034;-66
2021/10/13 00:39:24;;;;;;;1.70;0.63;;;7.00;91.00;;;;;;5001351;28;20034;-65
2021/10/13 00:41:49;;;;;;;2.05;0.57;;;6.90;90.80;;;;;;5001466;28;20032;-66
2021/10/13 00:44:16;;;;;;;1.52;0.80;;;6.90;90.80;;;;;;4982923;28;20037;-66
2021/10/13 00:46:41;;;;;;;2.42;0.60;;;7.00;90.80;;;;;;4983815;28;20038;-66
2021/10/13 00:49:07;;;;;;;1.90;0.90;;;6.90;90.90;;;;;;5000541;28;20038;-66
2021/10/13 00:51:34;;;;;;;2.58;0.80;;;6.90;90.90;;;;;;5000995;28;20088;-66
2021/10/13 00:54:00;;;;;;;2.03;0.88;;;6.90;90.90;;;;;;5001457;28;20022;-66
2021/10/13 00:56:26;;;;;;;3.20;1.35;;;6.90;90.90;;;;;;4994997;28;20026;-65
2021/10/13 00:58:52;;;;;;;2.17;0.77;;;6.90;90.90;;;;;;5003878;28;20091;-66
2021/10/13 01:01:24;;;;;;;1.52;0.98;;;6.90;91.00;;;;;;5004819;28;20030;-66
2021/10/13 01:04:18;;;;;;;1.70;1.00;;;6.90;91.10;;;;;;5005043;28;20504;-67
2021/10/13 01:07:02;;;;;;;1.48;0.95;;;6.90;91.20;;;;;;5002015;28;20073;-66
2021/10/13 01:09:43;;;;;;;2.35;0.95;;;6.90;91.20;;;;;;5004679;28;20529;-66
2021/10/13 01:12:27;;;;;;;1.33;0.90;;;6.90;91.30;;;;;;5001616;28;20025;-66
2021/10/13 01:15:22;;;;;;;1.73;0.70;;;6.90;91.50;;;;;;5003731;28;20022;-66
2021/10/13 01:18:03;;;;;;;1.60;0.75;;;6.90;91.50;;;;;;5003650;28;20108;-66
2021/10/13 01:20:57;;;;;;;0.80;0.73;;;6.90;91.60;;;;;;4985193;28;20831;-66
2021/10/13 01:23:34;;;;;;;0.73;0.60;;;6.90;91.50;;;;;;5003926;28;20033;-66
2021/10/13 01:26:20;;;;;;;1.17;0.82;;;6.90;91.50;;;;;;5002854;28;20056;-66
2021/10/13 01:28:49;;;;;;;1.65;0.50;;;6.90;91.50;;;;;;4986025;28;20030;-66
2021/10/13 01:31:23;;;;;;;1.05;0.68;;;6.90;91.50;;;;;;4986850;28;20645;-66
2021/10/13 01:34:07;;;;;;;0.70;0.70;;;6.90;91.60;;;;;;5004600;28;20026;-66
2021/10/13 01:36:40;;;;;;;0.70;0.70;;;6.90;91.60;;;;;;5000379;28;20065;-66
2021/10/13 01:39:07;;;;;;;0.80;0.80;;;6.90;91.50;;;;;;4985352;28;20516;-66
2021/10/13 01:41:36;;;;;;;1.13;0.80;;;6.90;91.40;;;;;;5003867;28;20069;-66
2021/10/13 01:44:03;;;;;;;2.05;0.70;;;6.80;91.50;;;;;;5002964;28;20072;-66
2021/10/13 01:46:30;;;;;;;4.75;0.90;;;6.80;91.70;;;;;;5003885;28;20033;-66
2021/10/13 01:49:02;;;;;;;1.90;1.25;;;6.80;91.70;;;;;;5002326;28;20029;-66
2021/10/13 01:51:29;;;;;;;1.13;0.80;;;6.80;91.70;;;;;;4985620;28;20763;-66
2021/10/13 01:53:56;;;;;;;0.90;0.70;;;6.80;91.80;;;;;;5003310;28;20048;-66
2021/10/13 01:56:25;;;;;;;0.95;0.75;;;6.80;91.90;;;;;;5001620;28;20546;-66
2021/10/13 01:58:56;;;;;;;2.67;1.10;;;6.90;91.90;;;;;;5001902;28;20026;-66
2021/10/13 02:01:31;;;;;;;3.08;0.90;;;6.90;91.80;;;;;;5003512;28;20068;-66
2021/10/13 02:03:59;;;;;;;1.85;1.10;;;6.90;91.80;;;;;;5003702;28;20072;-66
2021/10/13 02:06:28;;;;;;;2.25;1.48;;;6.90;91.60;;;;;;5002234;28;20100;-66
2021/10/13 02:08:55;;;;;;;2.22;1.15;;;6.80;91.60;;;;;;5001636;28;20198;-66
2021/10/13 02:11:29;;;;;;;1.45;1.27;;;6.90;91.60;;;;;;4985591;28;20097;-66
2021/10/13 02:14:01;;;;;;;3.95;1.38;;;6.90;91.50;;;;;;4999563;28;20636;-66
2021/10/13 02:16:28;;;;;;;1.42;1.10;;;6.80;91.30;;;;;;5004190;28;20053;-66
2021/10/13 02:18:56;;;;;;;2.70;1.02;;;6.80;91.30;;;;;;5002955;28;20119;-66
2021/10/13 02:21:25;;;;;;;1.40;1.00;;;6.80;91.40;;;;;;5002258;28;20038;-67
2021/10/13 02:23:52;;;;;;;2.22;1.17;;;6.80;91.50;;;;;;5002465;28;20128;-66
2021/10/13 02:26:25;;;;;;;1.63;0.93;;;6.70;91.40;;;;;;4984446;28;20092;-66
2021/10/13 02:28:56;;;;;;;1.17;1.00;;;6.70;91.50;;;;;;4984118;28;20116;-66
2021/10/13 02:31:22;;;;;;;1.02;0.85;;;6.70;91.50;;;;;;5002587;28;20366;-66
2021/10/13 02:33:47;;;;;;;2.25;0.90;;;6.70;91.60;;;;;;5001720;28;20053;-66
2021/10/13 02:36:13;;;;;;;4.70;1.02;;;6.70;91.60;;;;;;4983664;28;20053;-66
2021/10/13 02:38:39;;;;;;;2.22;1.00;;;6.70;91.70;;;;;;5000816;28;20141;-66
2021/10/13 02:41:05;;;;;;;1.55;0.77;;;6.70;91.80;;;;;;5003370;28;20037;-66
2021/10/13 02:43:30;;;;;;;1.55;1.00;;;6.60;91.80;;;;;;5003305;28;20026;-66
2021/10/13 02:46:07;;;;;;;0.98;0.90;;;6.60;91.70;;;;;;5003446;28;20041;-66
2021/10/13 02:48:35;;;;;;;2.95;1.08;;;6.70;91.70;;;;;;5002345;28;20472;-66
2021/10/13 02:51:10;;;;;;;0.98;0.90;;;6.60;91.60;;;;;;4985483;28;20044;-66
2021/10/13 02:54:14;;;;;;;2.47;0.93;;;6.60;91.60;;;;;;5004194;28;20030;-66
2021/10/13 02:56:46;;;;;;;1.48;1.00;;;6.60;91.30;;;;;;4966109;28;20796;-66
2021/10/13 02:59:26;;;;;;;1.70;1.10;;;6.60;91.40;;;;;;4985723;28;20100;-66
2021/10/13 03:01:55;;;;;;;1.38;1.00;;;6.50;91.40;;;;;;5001480;28;20095;-66
2021/10/13 03:04:30;;;;;;;1.27;0.93;;;6.50;91.50;;;;;;5003268;28;20137;-66
2021/10/13 03:07:06;;;;;;;1.75;1.17;;;6.50;91.60;;;;;;5002199;28;20048;-66
2021/10/13 03:09:34;;;;;;;1.90;1.20;;;6.50;91.60;;;;;;5000747;28;20125;-66
2021/10/13 03:12:03;;;;;;;1.63;1.00;;;6.40;91.60;;;;;;4992448;28;20041;-66
2021/10/13 03:14:30;;;;;;;2.67;1.20;;;6.40;91.60;;;;;;4993808;28;20045;-66
2021/10/13 03:16:57;;;;;;;1.50;1.10;;;6.40;91.70;;;;;;5002257;28;20038;-66
2021/10/13 03:19:25;;;;;;;2.05;1.20;;;6.40;91.60;;;;;;5001955;28;20723;-66
2021/10/13 03:21:52;;;;;;;2.28;1.33;;;6.40;91.60;;;;;;5002792;28;20713;-66
2021/10/13 03:24:21;;;;;;;1.60;1.20;;;6.40;91.70;;;;;;5002719;28;20049;-66
2021/10/13 03:26:48;;;;;;;3.42;1.35;;;6.40;91.80;;;;;;5002629;28;20041;-66
2021/10/13 03:29:13;;;;;;;2.40;1.20;;;6.30;91.70;;;;;;5002508;28;20041;-66
2021/10/13 03:31:40;;;;;;;1.77;1.40;;;6.40;91.80;;;;;;4985043;28;20041;-66
2021/10/13 03:34:06;;;;;;;2.30;1.15;;;6.40;91.80;;;;;;4984744;28;20527;-66
2021/10/13 03:36:42;;;;;;;1.60;1.15;;;6.40;91.70;;;;;;5002171;28;20042;-66
2021/10/13 03:39:09;;;;;;;3.17;1.70;;;6.40;91.60;;;;;;5001487;28;20109;-65
2021/10/13 03:41:35;;;;;;;1.67;1.20;;;6.40;91.60;;;;;;4999476;28;20489;-65
2021/10/13 03:44:01;;;;;;;2.08;1.48;;;6.40;91.50;;;;;;5001298;28;20037;-66
2021/10/13 03:46:27;;;;;;;4.55;1.52;;;6.40;91.60;;;;;;4991341;28;20042;-66
2021/10/13 03:48:53;;;;;;;2.67;1.50;;;6.30;91.60;;;;;;4981300;28;20034;-66
2021/10/13 03:51:20;;;;;;;3.67;1.75;;;6.30;91.70;;;;;;5001005;28;20051;-66
2021/10/13 03:53:46;;;;;;;3.25;2.03;;;6.30;91.80;;;;;;4983687;28;20042;-66
2021/10/13 03:56:12;;;;;;;1.92;1.50;;;6.30;91.80;;;;;;5001024;28;20033;-66
2021/10/13 03:58:38;;;;;;;2.58;1.70;;;6.30;91.70;;;;;;5001075;28;20038;-66
2021/10/13 04:01:04;;;;;;;2.58;1.60;;;6.30;91.90;;;;;;4981739;28;20045;-66
2021/10/13 04:03:30;;;;;;;2.38;1.85;;;6.30;92.00;;;;;;5000166;28;20022;-66
2021/10/13 04:05:56;;;;;;;2.05;1.50;;;6.20;92.00;;;;;;4981099;28;20044;-66
2021/10/13 04:08:21;;;;;;;2.17;1.45;;;6.30;92.10;;;;;;5001152;28;20076;-66
2021/10/13 04:10:47;;;;;;;3.85;1.70;;;6.30;92.00;;;;;;5000233;28;20117;-66
2021/10/13 04:13:13;;;;;;;5.03;2.42;;;6.30;92.00;;;;;;5001478;28;20029;-66
2021/10/13 04:15:39;;;;;;;3.17;1.73;;;6.20;91.90;;;;;;4999281;28;20041;-68
2021/10/13 04:18:05;;;;;;;3.22;1.70;;;6.20;92.20;;;;;;5000598;28;20046;-66
2021/10/13 04:20:31;;;;;;;3.17;1.98;;;6.20;92.00;;;;;;5000174;28;20045;-66
2021/10/13 04:22:57;;;;;;;2.55;2.03;;;6.20;92.00;;;;;;5001682;28;20026;-66
2021/10/13 04:25:23;;;;;;;5.07;2.03;;;6.20;92.00;;;;;;5001601;28;20437;-66
2021/10/13 04:27:48;;;;;;;3.08;2.10;;;6.20;91.90;;;;;;4997671;28;20030;-66
2021/10/13 04:30:15;;;;;;;2.92;2.20;;;6.30;92.00;;;;;;4999929;28;20038;-66
2021/10/13 04:32:40;;;;;;;3.92;2.63;;;6.20;92.00;;;;;;5000235;28;20112;-66
2021/10/13 04:35:07;;;;;;;4.75;2.78;;;6.20;92.00;;;;;;4983438;28;20037;-66
2021/10/13 04:37:32;;;;;;;3.80;2.42;;;6.20;92.00;;;;;;4999039;28;20037;-66
2021/10/13 04:39:58;;;;;;;4.35;2.90;;;6.30;92.00;;;;;;4997714;28;20042;-66
2021/10/13 04:42:24;;;;;;;3.83;2.72;;;6.20;91.80;;;;;;4997963;28;20120;-66
2021/10/13 04:44:49;;;;;;;3.53;2.92;;;6.20;91.80;;;;;;4996504;28;20134;-66
2021/10/13 04:47:15;;;;;;;3.85;2.53;;;6.20;91.70;;;;;;5000910;28;20158;-66
2021/10/13 04:49:41;;;;;;;5.13;2.40;;;6.30;91.60;;;;;;5000392;28;20868;-66
2021/10/13 04:52:06;;;;;;;3.85;2.28;;;6.20;91.40;;;;;;4992897;28;20056;-66
2021/10/13 04:54:32;;;;;;;4.90;2.55;;;6.20;91.50;;;;;;5000408;28;20136;-66
2021/10/13 04:56:58;;;;;;;4.10;2.70;;;6.20;91.60;;;;;;4999266;28;20506;-66
2021/10/13 04:59:23;;;;;;;4.30;2.72;;;6.20;91.60;;;;;;5000448;28;20137;-66
2021/10/13 05:01:49;;;;;;;4.63;2.88;;;6.10;91.60;;;;;;5000170;28;20041;-66
2021/10/13 05:04:15;;;;;;;3.88;2.75;;;6.10;91.60;;;;;;4997832;28;20066;-66
2021/10/13 05:06:43;;;;;;;4.20;2.65;;;6.10;91.70;;;;;;5000203;28;20061;-66
2021/10/13 05:09:09;;;;;;;5.05;2.63;;;6.10;91.70;;;;;;4998950;28;20436;-66
2021/10/13 05:11:34;;;;;;;4.18;2.58;;;6.10;91.70;;;;;;4996989;28;20060;-66
2021/10/13 05:14:00;;;;;;;4.63;2.50;;;6.10;91.70;;;;;;4998111;28;20478;-66
2021/10/13 05:16:25;;;;;;;4.55;2.80;;;6.10;91.60;;;;;;4999786;28;20029;-66
2021/10/13 05:18:51;;;;;;;4.00;2.63;;;6.10;91.60;;;;;;4998374;28;20401;-66
2021/10/13 05:21:17;;;;;;;5.00;3.20;;;6.10;91.50;;;;;;4982530;28;20026;-66
2021/10/13 05:23:42;;;;;;;5.70;2.75;;;6.10;91.80;;;;;;5000136;28;20422;-66
2021/10/13 05:26:08;;;;;;;3.47;2.58;;;6.10;91.50;;;;;;5000563;28;20030;-66
2021/10/13 05:28:34;;;;;;;7.40;2.75;;;6.10;91.50;;;;;;4993085;28;20080;-66
2021/10/13 05:30:59;;;;;;;4.50;2.88;;;6.00;91.30;;;;;;4998500;28;20484;-66
2021/10/13 05:33:25;;;;;;;4.88;2.80;;;6.00;91.50;;;;;;4978615;28;20046;-66
2021/10/13 05:35:51;;;;;;;5.35;2.83;;;6.00;91.50;;;;;;4982178;28;20033;-66
2021/10/13 05:38:16;;;;;;;4.57;2.90;;;6.00;91.50;;;;;;4999733;28;20042;-66
2021/10/13 05:40:42;;;;;;;3.60;2.53;;;6.00;91.50;;;;;;4997776;28;20038;-66
2021/10/13 05:43:08;;;;;;;5.82;2.90;;;6.00;91.50;;;;;;5000846;28;20042;-66
2021/10/13 05:45:35;;;;;;;5.22;2.95;;;6.00;91.50;;;;;;5001962;28;20034;-66
2021/10/13 05:48:01;;;;;;;6.40;3.95;;;6.00;91.50;;;;;;5001069;28;20718;-66
2021/10/13 05:50:26;;;;;;;6.20;3.42;;;6.00;91.60;;;;;;5000259;28;20041;-66
2021/10/13 05:52:52;;;;;;;6.07;3.45;;;6.00;91.70;;;;;;5002112;28;20899;-65
2021/10/13 05:55:17;;;;;;;4.80;2.70;;;6.00;91.80;;;;;;5001834;28;20661;-64
2021/10/13 05:57:43;;;;;;;5.20;3.17;;;6.10;92.00;;;;;;5000024;28;20045;-64
2021/10/13 06:00:09;;;;;;;6.03;3.55;;;6.10;92.00;;;;;;4985915;28;20045;-64
2021/10/13 06:02:35;;;;;;;4.80;3.40;;;6.10;92.00;;;;;;5002732;28;20055;-64
2021/10/13 06:05:02;;;;;;;6.85;3.13;;;6.10;92.00;;;;;;5003857;28;20481;-65
2021/10/13 06:07:28;;;;;;;5.32;3.35;;;6.20;92.00;;;;;;5003650;28;20819;-63
2021/10/13 06:09:53;;;;;;;5.55;3.30;;;6.20;92.00;;;;;;5002155;28;20088;-64
2021/10/13 06:12:19;;;;;;;5.60;3.75;;;6.20;92.10;;;;;;5003749;28;20033;-64
2021/10/13 06:14:45;;;;;;;7.15;3.95;;;6.30;92.10;;;;;;5004453;28;20037;-67
2021/10/13 06:17:10;;;;;;;7.60;4.10;;;6.40;92.20;;;;;;5004296;28;20397;-64
2021/10/13 06:19:36;;;;;;;5.85;3.70;;;6.40;92.20;;;;;;5005216;28;20528;-64
2021/10/13 06:22:02;;;;;;;5.22;3.63;;;6.50;92.10;;;;;;5003988;28;20059;-63
2021/10/13 06:24:27;;;;;;;6.65;4.57;;;6.50;92.20;;;;;;4986428;28;20084;-65
2021/10/13 06:26:53;;;;;;;8.50;5.43;;;6.60;92.30;;;;;;5002821;28;20841;-65
2021/10/13 06:29:19;;;;;;;7.55;4.40;;;6.60;92.30;;;;;;5002696;28;20046;-64
2021/10/13 06:31:45;;;;;;;8.65;4.95;;;6.70;92.40;;;;;;5002854;28;20044;-65
2021/10/13 06:34:11;;;;;;;7.82;4.53;;;6.80;92.30;;;;;;4988997;28;20026;-65
2021/10/13 06:36:36;;;;;;;8.57;4.18;;;6.90;92.30;;;;;;4983656;28;20062;-65
2021/10/13 06:39:03;;;;;;;10.13;5.05;;;6.90;92.40;;;;;;4982284;28;20092;-66
2021/10/13 06:41:29;;;;;;;12.95;7.05;;;7.00;92.40;;;;;;5000451;28;20038;-67
2021/10/13 06:43:55;;;;;;;9.88;5.70;;;7.00;92.30;;;;;;5001994;28;20037;-67
2021/10/13 06:46:21;;;;;;;13.73;6.15;;;7.10;92.20;;;;;;5002285;28;20038;-67
2021/10/13 06:48:46;;;;;;;12.50;5.93;;;7.20;92.30;;;;;;4999492;28;20034;-66
2021/10/13 06:51:12;;;;;;;11.18;6.00;;;7.30;92.30;;;;;;4981684;28;20040;-67
2021/10/13 06:53:38;;;;;;;12.50;5.03;;;7.30;92.30;;;;;;5002144;28;20038;-68
2021/10/13 06:56:04;;;;;;;12.20;6.32;;;7.30;92.30;;;;;;5002527;28;20038;-67
2021/10/13 06:58:30;;;;;;;9.95;5.15;;;7.40;92.40;;;;;;4968643;28;20512;-68
2021/10/13 07:00:56;;;;;;;11.70;5.95;;;7.40;92.30;;;;;;4990156;28;20038;-66
2021/10/13 07:03:21;;;;;;;9.07;4.93;;;7.50;92.40;;;;;;4982900;28;20141;-66
2021/10/13 07:05:47;;;;;;;9.43;6.07;;;7.60;92.30;;;;;;5002636;28;20123;-66
2021/10/13 07:08:13;;;;;;;10.52;5.97;;;7.60;92.30;;;;;;5000741;28;20453;-70
2021/10/13 07:10:39;;;;;;;10.95;6.00;;;7.70;92.10;;;;;;5001585;28;20042;-71
2021/10/13 07:13:04;;;;;;;8.18;5.60;;;7.70;92.10;;;;;;5002438;28;20091;-66
2021/10/13 07:15:30;;;;;;;10.68;5.10;;;7.70;92.00;;;;;;4998601;28;20038;-66
2021/10/13 07:17:56;;;;;;;9.18;5.60;;;7.80;92.00;;;;;;4983908;28;20064;-66
2021/10/13 07:20:23;;;;;;;8.68;5.43;;;7.80;91.90;;;;;;4984502;28;20456;-66
2021/10/13 07:22:49;;;;;;;8.60;4.68;;;7.80;91.90;;;;;;5001879;28;20092;-66
2021/10/13 07:25:20;;;;;;;9.20;4.85;;;7.90;91.90;;;;;;5000907;28;20038;-66
2021/10/13 07:27:45;;;;;;;10.38;4.95;;;8.00;91.90;;;;;;4999446;28;20615;-66
2021/10/13 07:30:14;;;;;;;10.63;5.05;;;8.10;92.00;;;;;;5002842;28;20045;-66
2021/10/13 07:32:40;;;;;;;11.15;5.85;;;8.20;92.00;;;;;;5000780;28;20037;-66
2021/10/13 07:35:07;;;;;;;10.90;5.30;;;8.30;92.00;;;;;;5000729;28;20092;-70
2021/10/13 07:37:33;;;;;;;7.82;5.05;;;8.30;91.90;;;;;;4987029;28;20078;-66
2021/10/13 07:39:58;;;;;;;8.93;4.90;;;8.40;91.90;;;;;;5001000;28;20030;-66
2021/10/13 07:42:24;;;;;;;9.48;4.85;;;8.50;91.50;;;;;;5001431;28;20542;-66
2021/10/13 07:44:50;;;;;;;8.93;4.85;;;8.60;91.40;;;;;;5000681;28;20022;-66
2021/10/13 07:47:15;;;;;;;7.53;4.90;;;8.70;91.10;;;;;;4999349;28;20137;-66
2021/10/13 07:49:41;;;;;;;6.80;3.95;;;8.80;91.00;;;;;;5001956;28;20045;-67
2021/10/13 07:52:07;;;;;;;6.80;4.43;;;8.80;91.00;;;;;;5001553;28;20132;-67
2021/10/13 07:54:33;;;;;;;7.75;4.47;;;8.90;90.90;;;;;;5003047;28;20051;-67
2021/10/13 07:56:59;;;;;;;8.73;4.05;;;8.90;90.40;;;;;;4981632;28;20441;-67
2021/10/13 07:59:24;;;;;;;7.53;4.13;;;9.00;90.00;;;;;;4998335;28;20034;-66
2021/10/13 08:01:50;;;;;;;9.73;4.45;;;9.00;89.60;;;;;;4986218;28;20642;-66
2021/10/13 08:04:18;;;;;;;7.45;3.88;;;9.00;89.60;;;;;;4986681;28;20036;-66
2021/10/13 08:06:44;;;;;;;5.45;3.80;;;9.10;90.10;;;;;;4983223;28;20562;-66
2021/10/13 08:09:11;;;;;;;7.35;3.92;;;9.20;89.90;;;;;;4986257;28;20142;-66
2021/10/13 08:11:38;;;;;;;5.50;3.35;;;9.30;89.30;;;;;;4983176;28;20038;-66
2021/10/13 08:14:03;;;;;;;7.15;4.18;;;9.40;89.20;;;;;;4999072;28;20135;-67
2021/10/13 08:16:29;;;;;;;5.82;3.90;;;9.40;89.70;;;;;;4999496;28;20325;-67
2021/10/13 08:18:55;;;;;;;5.93;3.00;;;9.40;87.70;;;;;;4997535;28;20133;-67
2021/10/13 08:21:20;;;;;;;5.30;3.20;;;9.50;87.80;;;;;;5000955;28;20045;-67
2021/10/13 08:23:46;;;;;;;7.70;3.78;;;9.60;87.20;;;;;;4999177;28;20026;-68
2021/10/13 08:26:13;;;;;;;5.00;3.53;;;9.70;86.90;;;;;;5000121;28;20247;-67
2021/10/13 08:28:39;;;;;;;9.98;4.07;;;9.80;87.00;;;;;;4989824;28;20033;-66
2021/10/13 08:31:04;;;;;;;5.40;3.47;;;9.90;86.00;;;;;;5000317;28;20053;-66
2021/10/13 08:33:31;;;;;;;7.30;4.13;;;10.10;85.20;;;;;;5000818;28;20108;-66
2021/10/13 08:35:57;;;;;;;4.75;3.20;;;10.20;85.30;;;;;;4983571;28;20033;-70
2021/10/13 08:38:23;;;;;;;5.63;3.13;;;10.40;82.20;;;;;;4999762;28;20044;-67
2021/10/13 08:40:48;;;;;;;6.40;3.20;;;10.50;81.90;;;;;;4982990;28;20034;-67
2021/10/13 08:43:14;;;;;;;5.15;2.85;;;10.60;81.70;;;;;;4980967;28;20108;-66
2021/10/13 08:45:41;;;;;;;3.67;2.75;;;10.80;81.20;;;;;;4999923;28;20030;-66
2021/10/13 08:48:07;;;;;;;5.72;3.38;;;11.10;80.40;;;;;;5000335;28;20072;-67
2021/10/13 08:50:36;;;;;;;4.43;2.80;;;11.40;77.40;;;;;;5000363;28;20088;-69
2021/10/13 08:53:14;;;;;;;5.47;3.03;;;11.60;77.20;;;;;;5000400;28;20034;-66
2021/10/13 08:55:41;;;;;;;3.88;2.78;;;11.60;76.90;;;;;;5000146;28;20080;-64
2021/10/13 08:58:23;;;;;;;5.75;2.70;;;11.70;77.70;;;;;;5000098;28;20037;-71
2021/10/13 09:01:13;;;;;;;6.57;3.40;;;11.70;76.20;;;;;;4997770;28;20058;-67
2021/10/13 09:03:41;;;;;;;5.20;2.95;;;11.70;75.40;;;;;;4987088;28;20383;-66
2021/10/13 09:06:25;;;;;;;3.97;2.67;;;11.60;76.40;;;;;;5000599;28;20026;-68
2021/10/13 09:09:07;;;;;;;5.45;2.92;;;11.70;77.40;;;;;;4999363;28;20049;-69
2021/10/13 09:11:42;;;;;;;7.32;3.38;;;11.90;76.70;;;;;;4998986;28;20057;-68
2021/10/13 09:14:13;;;;;;;5.22;3.00;;;12.00;75.90;;;;;;4983380;28;20172;-66
2021/10/13 09:16:45;;;;;;;6.38;3.47;;;12.10;75.10;;;;;;5000227;28;20034;-69
2021/10/13 09:19:10;;;;;;;7.88;3.90;;;12.20;76.10;;;;;;5004171;28;20041;-72
2021/10/13 09:21:57;;;;;;;4.65;3.22;;;12.50;76.20;;;;;;5004539;28;20026;-65
2021/10/13 09:24:25;;;;;;;9.38;3.58;;;13.00;74.40;;;;;;5003657;28;20049;-68
2021/10/13 09:26:52;;;;;;;7.38;3.67;;;13.90;70.50;;;;;;5004138;28;20104;-64
2021/10/13 09:29:19;;;;;;;8.95;4.32;;;14.60;68.40;;;;;;5003088;28;20680;-65
2021/10/13 09:31:54;;;;;;;5.00;3.50;;;15.10;64.30;;;;;;5004342;28;20048;-68
2021/10/13 09:34:20;;;;;;;4.95;4.13;;;15.50;63.00;;;;;;5003174;28;20038;-67
2021/10/13 09:36:51;;;;;;;6.75;4.53;;;15.20;63.80;;;;;;5003196;28;20116;-68
2021/10/13 09:39:19;;;;;;;7.63;4.15;;;14.90;63.80;;;;;;5002968;28;20065;-70
2021/10/13 09:41:58;;;;;;;7.43;4.63;;;14.60;65.10;;;;;;4985468;28;20034;-69
2021/10/13 09:44:25;;;;;;;6.63;4.75;;;13.90;65.40;;;;;;4998017;28;20081;-70
2021/10/13 09:46:57;;;;;;;6.32;4.20;;;13.60;67.90;;;;;;4981937;28;20040;-70
2021/10/13 09:49:29;;;;;;;7.78;5.10;;;13.40;69.10;;;;;;5001248;28;20073;-70
2021/10/13 09:52:06;;;;;;;7.32;4.47;;;13.40;69.40;;;;;;5002721;28;20030;-70
2021/10/13 09:54:32;;;;;;;6.88;4.68;;;13.70;69.10;;;;;;5002693;28;20038;-69
2021/10/13 09:56:58;;;;;;;7.07;4.15;;;13.50;68.30;;;;;;4993461;28;20108;-68
2021/10/13 09:59:24;;;;;;;8.32;4.80;;;13.10;68.20;;;;;;4984530;28;20841;-67
2021/10/13 10:01:58;;;;;;;6.28;4.07;;;12.90;70.50;;;;;;5003029;28;20034;-67
2021/10/13 10:04:28;;;;;;;6.78;4.45;;;12.90;71.60;;;;;;5003200;28;20124;-67
2021/10/13 10:06:57;;;;;;;6.47;4.47;;;12.90;71.40;;;;;;5002226;28;20034;-67
2021/10/13 10:09:26;;;;;;;7.18;4.45;;;12.80;71.80;;;;;;5003353;28;20034;-67
2021/10/13 10:12:08;;;;;;;7.20;5.18;;;12.80;71.30;;;;;;5002961;28;21044;-69
2021/10/13 10:14:35;;;;;;;7.70;4.43;;;12.70;70.60;;;;;;5002359;28;20158;-71
2021/10/13 10:17:03;;;;;;;6.65;4.80;;;12.50;71.70;;;;;;5002551;28;20789;-69
2021/10/13 10:19:44;;;;;;;6.15;4.13;;;12.40;72.50;;;;;;5003734;28;20033;-70
2021/10/13 10:22:10;;;;;;;6.55;3.70;;;12.20;72.90;;;;;;5004876;28;20030;-70
2021/10/13 10:24:37;;;;;;;5.57;4.13;;;12.10;73.40;;;;;;4986616;28;20033;-70
2021/10/13 10:27:30;;;;;;;6.28;4.30;;;12.10;73.70;;;;;;5003426;28;20030;-71
2021/10/13 10:30:07;;;;;;;4.90;3.58;;;12.10;73.50;;;;;;5002284;28;20155;-68
2021/10/13 10:32:37;;;;;;;8.60;4.05;;;12.00;74.60;;;;;;5000879;28;20030;-67
2021/10/13 10:35:03;;;;;;;4.30;3.47;;;11.90;73.80;;;;;;4968871;28;20073;-68
2021/10/13 10:37:49;;;;;;;4.80;3.58;;;12.00;74.20;;;;;;5001726;28;20042;-67
2021/10/13 10:40:32;;;;;;;10.65;4.38;;;12.00;73.40;;;;;;5001158;28;20038;-68
2021/10/13 10:43:04;;;;;;;5.95;3.55;;;12.00;74.60;;;;;;5002154;28;20062;-68
2021/10/13 10:45:31;;;;;;;6.03;3.85;;;11.90;74.80;;;;;;4983729;28;20795;-72
2021/10/13 10:48:00;;;;;;;6.22;3.88;;;11.90;74.80;;;;;;5002179;28;20156;-66
2021/10/13 10:50:46;;;;;;;5.80;4.03;;;11.90;74.70;;;;;;5001521;28;20053;-72
2021/10/13 10:53:27;;;;;;;6.60;3.50;;;11.90;75.00;;;;;;5000832;28;20512;-71
2021/10/13 10:55:54;;;;;;;6.05;3.67;;;12.00;74.00;;;;;;5001175;28;20276;-71
2021/10/13 10:58:24;;;;;;;6.47;4.25;;;11.90;74.20;;;;;;5002405;28;20202;-71
2021/10/13 11:01:06;;;;;;;6.68;4.03;;;11.80;75.60;;;;;;4969101;28;20034;-68
2021/10/13 11:03:42;;;;;;;4.30;3.50;;;11.80;76.10;;;;;;5000239;28;20066;-74
2021/10/13 11:06:11;;;;;;;5.15;3.65;;;11.90;76.90;;;;;;5002800;28;20557;-69
2021/10/13 11:08:49;;;;;;;5.32;3.78;;;11.90;75.10;;;;;;4985621;28;20042;-72
2021/10/13 11:11:16;;;;;;;5.88;3.30;;;12.00;74.80;;;;;;4999598;28;20069;-71
2021/10/13 11:13:57;;;;;;;4.90;3.30;;;12.00;75.20;;;;;;5001752;28;20049;-66
2021/10/13 11:16:22;;;;;;;5.13;3.22;;;12.10;75.40;;;;;;5002034;28;20273;-66
2021/10/13 11:18:48;;;;;;;6.28;3.42;;;12.30;75.10;;;;;;5002151;28;20485;-71
2021/10/13 11:21:14;;;;;;;4.95;3.60;;;12.30;73.80;;;;;;5002579;28;20040;-65
2021/10/13 11:23:40;;;;;;;5.93;3.47;;;12.50;74.30;;;;;;4984550;28;20109;-70
2021/10/13 11:26:05;;;;;;;7.07;3.97;;;12.50;73.20;;;;;;5002934;28;20056;-67
2021/10/13 11:28:40;;;;;;;4.72;3.47;;;12.60;73.00;;;;;;5001986;28;20045;-70
2021/10/13 11:31:09;;;;;;;6.25;3.50;;;12.60;72.80;;;;;;5001236;28;20037;-70
2021/10/13 11:33:35;;;;;;;4.50;3.00;;;12.70;73.10;;;;;;5003235;28;20045;-69
2021/10/13 11:36:03;;;;;;;5.65;2.80;;;12.70;71.50;;;;;;5001750;28;20030;-68
2021/10/13 11:38:32;;;;;;;5.78;3.47;;;12.80;72.00;;;;;;4997296;28;20057;-68
2021/10/13 11:41:25;;;;;;;4.50;3.30;;;12.90;70.40;;;;;;5002275;28;20037;-68
2021/10/13 11:43:50;;;;;;;4.43;2.65;;;12.90;70.40;;;;;;4995165;28;20053;-68
2021/10/13 11:46:18;;;;;;;6.20;3.63;;;12.90;69.50;;;;;;5002153;28;20033;-67
2021/10/13 11:48:44;;;;;;;5.82;2.90;;;13.00;70.40;;;;;;5000939;28;20735;-69
2021/10/13 11:51:15;;;;;;;4.00;3.05;;;13.00;70.10;;;;;;5001509;28;20706;-71
2021/10/13 11:53:47;;;;;;;3.72;2.80;;;13.00;70.10;;;;;;5001173;28;20041;-71
2021/10/13 11:56:13;;;;;;;3.72;2.72;;;13.00;70.40;;;;;;5001302;28;20033;-71
2021/10/13 11:58:40;;;;;;;6.28;3.20;;;13.10;70.40;;;;;;5001267;28;20038;-68
2021/10/13 12:01:12;;;;;;;3.58;3.22;;;13.10;69.80;;;;;;5001536;28;20022;-67
2021/10/13 12:03:38;;;;;;;4.70;2.83;;;13.20;70.10;;;;;;5001575;28;20040;-67
2021/10/13 12:06:05;;;;;;;4.57;3.22;;;13.30;70.10;;;;;;5001376;28;20120;-67
2021/10/13 12:08:33;;;;;;;5.03;2.90;;;13.40;70.40;;;;;;5000510;28;20119;-71
2021/10/13 12:11:12;;;;;;;3.40;2.72;;;13.40;69.00;;;;;;4984528;28;20593;-71
2021/10/13 12:13:40;;;;;;;3.45;2.67;;;13.40;69.10;;;;;;5001194;28;20030;-80
2021/10/13 12:16:09;;;;;;;4.57;3.03;;;13.40;69.20;;;;;;5001521;28;20397;-76
2021/10/13 12:18:47;;;;;;;4.75;2.85;;;13.40;70.60;;;;;;4983483;28;20177;-68
2021/10/13 12:21:15;;;;;;;6.15;2.90;;;13.50;70.00;;;;;;4993316;28;20128;-67
2021/10/13 12:23:58;;;;;;;5.72;3.13;;;13.60;69.70;;;;;;5001829;28;20121;-68
2021/10/13 12:26:29;;;;;;;3.45;2.70;;;13.60;69.00;;;;;;5000184;28;20070;-67
2021/10/13 12:28:57;;;;;;;3.45;2.90;;;13.70;68.70;;;;;;4999518;28;20030;-67
2021/10/13 12:31:29;;;;;;;4.07;3.22;;;13.70;68.90;;;;;;5000984;28;20033;-68
2021/10/13 12:33:59;;;;;;;6.95;2.95;;;13.80;69.40;;;;;;4999313;28;20038;-72
2021/10/13 12:36:37;;;;;;;6.78;3.78;;;13.90;69.30;;;;;;5000426;28;20030;-69
2021/10/13 12:39:14;;;;;;;13.75;7.18;;;13.90;68.20;;;;;;4999365;28;20033;-67
2021/10/13 12:41:43;;;;;;;4.53;2.70;;;14.00;66.20;;;;;;5000925;28;20090;-68
2021/10/13 12:44:14;;;;;;;11.57;6.63;;;13.90;66.90;;;;;;5000797;28;20088;-67
2021/10/13 12:46:50;;;;;;;12.55;6.97;;;13.90;66.40;;;;;;4997362;28;20770;-67
2021/10/13 12:49:17;;;;;;;;;;;13.90;66.70;;;;;;5000076;28;20026;-67
2021/10/13 12:51:49;;;;;;;12.82;6.75;;;13.90;65.40;;;;;;5004309;28;19963;-67
2021/10/13 12:54:15;;;;;;;17.10;8.52;;;13.90;65.30;;;;;;5005448;28;20038;-68
2021/10/13 12:56:40;;;;;;;39.50;15.65;;;13.90;65.30;;;;;;4993399;28;20088;-68
2021/10/13 12:59:06;;;;;;;7.88;3.35;;;13.90;65.20;;;;;;5004283;28;20048;-67
2021/10/13 13:01:32;;;;;;;8.27;3.67;;;14.00;65.40;;;;;;4971164;28;20030;-68